sensor_id;sensor_type;location;lat;lon;timestamp;P1;durP1;ratioP1;P2;durP2;ratioP2
80131;SDS011;69442;51.442;10.564;2023-08-21T00:01:05;5.63;;;5.00;;
80131;SDS011;69442;51.442;10.564;2023-08-21T00:03:30;5.18;;;4.63;;
80131;SDS011;69442;51.442;10.564;2023-08-21T00:05:56;5.18;;;4.70;;
80131;SDS011;69442;51.442;10.564;2023-08-21T00:08:21;5.68;;;5.18;;
80131;SDS011;69442;51.442;10.564;2023-08-21T00:10:46;5.90;;;5.30;;
80131;SDS011;69442;51.442;10.564;2023-08-21T00:13:13;5.53;;;5.03;;
80131;SDS011;69442;51.442;10.564;2023-08-21T00:15:38;5.78;;;5.15;;
80131;SDS011;69442;51.442;10.564;2023-08-21T00:18:04;5.30;;;4.80;;
80131;SDS011;69442;51.442;10.564;2023-08-21T00:20:30;5.00;;;4.55;;
80131;SDS011;69442;51.442;10.564;2023-08-21T00:22:55;6.95;;;5.35;;
80131;SDS011;69442;51.442;10.564;2023-08-21T00:25:21;7.80;;;5.35;;
80131;SDS011;69442;51.442;10.564;2023-08-21T00:27:46;6.90;;;4.70;;
80131;SDS011;69442;51.442;10.564;2023-08-21T00:30:12;7.68;;;4.72;;
80131;SDS011;69442;51.442;10.564;2023-08-21T00:32:39;5.68;;;4.80;;
80131;SDS011;69442;51.442;10.564;2023-08-21T00:35:05;5.38;;;4.88;;
80131;SDS011;69442;51.442;10.564;2023-08-21T00:37:31;5.78;;;5.18;;
80131;SDS011;69442;51.442;10.564;2023-08-21T00:39:56;8.52;;;5.15;;
80131;SDS011;69442;51.442;10.564;2023-08-21T00:42:21;4.70;;;4.30;;
80131;SDS011;69442;51.442;10.564;2023-08-21T00:44:47;4.93;;;4.43;;
80131;SDS011;69442;51.442;10.564;2023-08-21T00:47:12;5.65;;;4.93;;
80131;SDS011;69442;51.442;10.564;2023-08-21T00:49:37;5.20;;;4.70;;
80131;SDS011;69442;51.442;10.564;2023-08-21T00:52:04;5.57;;;4.80;;
80131;SDS011;69442;51.442;10.564;2023-08-21T00:54:32;7.35;;;5.38;;
80131;SDS011;69442;51.442;10.564;2023-08-21T00:56:57;4.47;;;4.07;;
80131;SDS011;69442;51.442;10.564;2023-08-21T00:59:23;5.63;;;4.75;;
80131;SDS011;69442;51.442;10.564;2023-08-21T01:01:48;4.90;;;4.40;;
80131;SDS011;69442;51.442;10.564;2023-08-21T01:04:13;4.50;;;4.10;;
80131;SDS011;69442;51.442;10.564;2023-08-21T01:06:39;4.75;;;4.32;;
80131;SDS011;69442;51.442;10.564;2023-08-21T01:12:12;4.55;;;4.15;;
80131;SDS011;69442;51.442;10.564;2023-08-21T01:17:24;4.90;;;4.40;;
80131;SDS011;69442;51.442;10.564;2023-08-21T01:19:51;5.68;;;4.90;;
80131;SDS011;69442;51.442;10.564;2023-08-21T01:22:18;5.60;;;5.10;;
80131;SDS011;69442;51.442;10.564;2023-08-21T01:24:43;5.20;;;4.53;;
80131;SDS011;69442;51.442;10.564;2023-08-21T01:27:09;4.68;;;4.28;;
80131;SDS011;69442;51.442;10.564;2023-08-21T01:29:37;4.65;;;4.18;;
80131;SDS011;69442;51.442;10.564;2023-08-21T01:35:04;5.38;;;4.47;;
80131;SDS011;69442;51.442;10.564;2023-08-21T01:37:31;4.78;;;4.35;;
80131;SDS011;69442;51.442;10.564;2023-08-21T01:39:59;6.80;;;4.85;;
80131;SDS011;69442;51.442;10.564;2023-08-21T01:42:25;4.97;;;4.47;;
80131;SDS011;69442;51.442;10.564;2023-08-21T01:44:50;4.95;;;4.53;;
80131;SDS011;69442;51.442;10.564;2023-08-21T01:47:16;7.70;;;4.88;;
80131;SDS011;69442;51.442;10.564;2023-08-21T01:49:41;4.82;;;4.35;;
80131;SDS011;69442;51.442;10.564;2023-08-21T01:52:06;5.90;;;5.13;;
80131;SDS011;69442;51.442;10.564;2023-08-21T01:54:32;4.82;;;4.15;;
80131;SDS011;69442;51.442;10.564;2023-08-21T01:56:57;6.00;;;4.63;;
80131;SDS011;69442;51.442;10.564;2023-08-21T01:59:23;4.43;;;4.03;;
80131;SDS011;69442;51.442;10.564;2023-08-21T02:01:49;4.47;;;4.07;;
80131;SDS011;69442;51.442;10.564;2023-08-21T02:04:15;5.47;;;4.57;;
80131;SDS011;69442;51.442;10.564;2023-08-21T02:06:40;4.40;;;4.00;;
80131;SDS011;69442;51.442;10.564;2023-08-21T02:09:06;6.20;;;4.63;;
80131;SDS011;69442;51.442;10.564;2023-08-21T02:11:31;6.65;;;4.93;;
80131;SDS011;69442;51.442;10.564;2023-08-21T02:13:57;4.13;;;3.72;;
80131;SDS011;69442;51.442;10.564;2023-08-21T02:16:22;6.63;;;4.53;;
80131;SDS011;69442;51.442;10.564;2023-08-21T02:18:48;4.60;;;4.20;;
80131;SDS011;69442;51.442;10.564;2023-08-21T02:21:13;4.40;;;3.72;;
80131;SDS011;69442;51.442;10.564;2023-08-21T02:23:39;4.75;;;4.10;;
80131;SDS011;69442;51.442;10.564;2023-08-21T02:26:04;4.40;;;4.00;;
80131;SDS011;69442;51.442;10.564;2023-08-21T02:28:30;5.50;;;3.70;;
80131;SDS011;69442;51.442;10.564;2023-08-21T02:30:55;4.10;;;3.80;;
80131;SDS011;69442;51.442;10.564;2023-08-21T02:33:20;3.97;;;3.65;;
80131;SDS011;69442;51.442;10.564;2023-08-21T02:35:46;5.55;;;4.20;;
80131;SDS011;69442;51.442;10.564;2023-08-21T02:38:11;4.32;;;3.70;;
80131;SDS011;69442;51.442;10.564;2023-08-21T02:40:36;4.38;;;3.70;;
80131;SDS011;69442;51.442;10.564;2023-08-21T02:43:02;4.30;;;3.90;;
80131;SDS011;69442;51.442;10.564;2023-08-21T02:45:27;5.55;;;4.00;;
80131;SDS011;69442;51.442;10.564;2023-08-21T02:47:53;4.97;;;4.05;;
80131;SDS011;69442;51.442;10.564;2023-08-21T02:50:18;5.13;;;4.22;;
80131;SDS011;69442;51.442;10.564;2023-08-21T02:52:43;5.53;;;4.30;;
80131;SDS011;69442;51.442;10.564;2023-08-21T02:55:09;5.15;;;4.65;;
80131;SDS011;69442;51.442;10.564;2023-08-21T02:57:34;4.43;;;4.03;;
80131;SDS011;69442;51.442;10.564;2023-08-21T03:00:00;5.00;;;4.57;;
80131;SDS011;69442;51.442;10.564;2023-08-21T03:02:25;5.22;;;4.47;;
80131;SDS011;69442;51.442;10.564;2023-08-21T03:04:51;3.95;;;3.55;;
80131;SDS011;69442;51.442;10.564;2023-08-21T03:07:17;5.10;;;4.55;;
80131;SDS011;69442;51.442;10.564;2023-08-21T03:09:44;5.05;;;4.35;;
80131;SDS011;69442;51.442;10.564;2023-08-21T03:12:10;3.95;;;3.65;;
80131;SDS011;69442;51.442;10.564;2023-08-21T03:14:36;4.25;;;3.85;;
80131;SDS011;69442;51.442;10.564;2023-08-21T03:17:01;5.07;;;3.92;;
80131;SDS011;69442;51.442;10.564;2023-08-21T03:19:26;5.60;;;4.40;;
80131;SDS011;69442;51.442;10.564;2023-08-21T03:21:52;3.92;;;3.58;;
80131;SDS011;69442;51.442;10.564;2023-08-21T03:24:17;4.30;;;3.72;;
80131;SDS011;69442;51.442;10.564;2023-08-21T03:26:43;7.25;;;5.47;;
80131;SDS011;69442;51.442;10.564;2023-08-21T03:29:09;4.97;;;3.90;;
80131;SDS011;69442;51.442;10.564;2023-08-21T03:31:34;4.13;;;3.83;;
80131;SDS011;69442;51.442;10.564;2023-08-21T03:34:00;4.18;;;3.78;;
80131;SDS011;69442;51.442;10.564;2023-08-21T03:36:25;4.60;;;4.20;;
80131;SDS011;69442;51.442;10.564;2023-08-21T03:38:57;5.22;;;4.50;;
80131;SDS011;69442;51.442;10.564;2023-08-21T03:41:23;4.38;;;3.97;;
80131;SDS011;69442;51.442;10.564;2023-08-21T03:43:48;9.10;;;5.78;;
80131;SDS011;69442;51.442;10.564;2023-08-21T03:46:13;8.63;;;5.13;;
80131;SDS011;69442;51.442;10.564;2023-08-21T03:48:39;7.03;;;4.30;;
80131;SDS011;69442;51.442;10.564;2023-08-21T03:51:04;5.47;;;4.40;;
80131;SDS011;69442;51.442;10.564;2023-08-21T03:53:29;4.97;;;3.90;;
80131;SDS011;69442;51.442;10.564;2023-08-21T03:55:55;8.05;;;5.35;;
80131;SDS011;69442;51.442;10.564;2023-08-21T03:58:20;4.68;;;3.95;;
80131;SDS011;69442;51.442;10.564;2023-08-21T04:00:45;4.85;;;4.35;;
80131;SDS011;69442;51.442;10.564;2023-08-21T04:03:11;6.18;;;4.95;;
80131;SDS011;69442;51.442;10.564;2023-08-21T04:05:37;5.72;;;4.50;;
80131;SDS011;69442;51.442;10.564;2023-08-21T04:08:02;7.25;;;5.68;;
80131;SDS011;69442;51.442;10.564;2023-08-21T04:10:28;5.63;;;5.03;;
80131;SDS011;69442;51.442;10.564;2023-08-21T04:12:53;5.10;;;4.40;;
80131;SDS011;69442;51.442;10.564;2023-08-21T04:15:18;6.05;;;4.72;;
80131;SDS011;69442;51.442;10.564;2023-08-21T04:17:44;4.70;;;4.10;;
80131;SDS011;69442;51.442;10.564;2023-08-21T04:20:09;5.95;;;4.43;;
80131;SDS011;69442;51.442;10.564;2023-08-21T04:22:35;6.45;;;4.90;;
80131;SDS011;69442;51.442;10.564;2023-08-21T04:25:00;5.60;;;5.05;;
80131;SDS011;69442;51.442;10.564;2023-08-21T04:27:26;5.85;;;5.25;;
80131;SDS011;69442;51.442;10.564;2023-08-21T04:29:52;7.55;;;5.72;;
80131;SDS011;69442;51.442;10.564;2023-08-21T04:32:18;4.63;;;4.03;;
80131;SDS011;69442;51.442;10.564;2023-08-21T04:34:43;4.93;;;4.30;;
80131;SDS011;69442;51.442;10.564;2023-08-21T04:37:09;4.00;;;3.58;;
80131;SDS011;69442;51.442;10.564;2023-08-21T04:39:34;5.22;;;4.63;;
80131;SDS011;69442;51.442;10.564;2023-08-21T04:42:01;4.35;;;3.95;;
80131;SDS011;69442;51.442;10.564;2023-08-21T04:44:27;5.57;;;4.60;;
80131;SDS011;69442;51.442;10.564;2023-08-21T04:46:52;6.88;;;4.90;;
80131;SDS011;69442;51.442;10.564;2023-08-21T04:49:18;5.55;;;4.32;;
80131;SDS011;69442;51.442;10.564;2023-08-21T04:51:43;4.93;;;4.47;;
80131;SDS011;69442;51.442;10.564;2023-08-21T04:54:08;4.68;;;4.20;;
80131;SDS011;69442;51.442;10.564;2023-08-21T04:56:34;4.22;;;3.83;;
80131;SDS011;69442;51.442;10.564;2023-08-21T04:58:59;4.90;;;4.40;;
80131;SDS011;69442;51.442;10.564;2023-08-21T05:01:24;4.70;;;3.92;;
80131;SDS011;69442;51.442;10.564;2023-08-21T05:03:50;4.53;;;3.40;;
80131;SDS011;69442;51.442;10.564;2023-08-21T05:06:16;3.85;;;3.45;;
80131;SDS011;69442;51.442;10.564;2023-08-21T05:08:41;5.00;;;3.30;;
80131;SDS011;69442;51.442;10.564;2023-08-21T05:11:07;4.55;;;4.15;;
80131;SDS011;69442;51.442;10.564;2023-08-21T05:13:33;5.15;;;4.65;;
80131;SDS011;69442;51.442;10.564;2023-08-21T05:15:58;4.80;;;3.97;;
80131;SDS011;69442;51.442;10.564;2023-08-21T05:18:24;5.80;;;4.45;;
80131;SDS011;69442;51.442;10.564;2023-08-21T05:20:50;5.45;;;4.40;;
80131;SDS011;69442;51.442;10.564;2023-08-21T05:23:17;5.10;;;4.35;;
80131;SDS011;69442;51.442;10.564;2023-08-21T05:25:43;4.70;;;4.30;;
80131;SDS011;69442;51.442;10.564;2023-08-21T05:28:10;4.75;;;4.25;;
80131;SDS011;69442;51.442;10.564;2023-08-21T05:30:36;6.70;;;5.25;;
80131;SDS011;69442;51.442;10.564;2023-08-21T05:33:01;5.55;;;4.90;;
80131;SDS011;69442;51.442;10.564;2023-08-21T05:35:27;4.47;;;4.07;;
80131;SDS011;69442;51.442;10.564;2023-08-21T05:37:53;5.40;;;4.40;;
80131;SDS011;69442;51.442;10.564;2023-08-21T05:40:18;5.70;;;4.65;;
80131;SDS011;69442;51.442;10.564;2023-08-21T05:42:44;5.60;;;5.10;;
80131;SDS011;69442;51.442;10.564;2023-08-21T05:45:10;5.38;;;4.80;;
80131;SDS011;69442;51.442;10.564;2023-08-21T05:47:35;7.80;;;5.40;;
80131;SDS011;69442;51.442;10.564;2023-08-21T05:50:00;6.45;;;5.28;;
80131;SDS011;69442;51.442;10.564;2023-08-21T05:52:26;6.05;;;5.45;;
80131;SDS011;69442;51.442;10.564;2023-08-21T05:54:52;6.78;;;5.72;;
80131;SDS011;69442;51.442;10.564;2023-08-21T05:57:17;7.30;;;6.18;;
80131;SDS011;69442;51.442;10.564;2023-08-21T05:59:43;6.68;;;5.93;;
80131;SDS011;69442;51.442;10.564;2023-08-21T06:02:10;8.52;;;6.65;;
80131;SDS011;69442;51.442;10.564;2023-08-21T06:04:37;7.45;;;6.60;;
80131;SDS011;69442;51.442;10.564;2023-08-21T06:07:03;8.32;;;6.88;;
80131;SDS011;69442;51.442;10.564;2023-08-21T06:09:28;7.40;;;6.30;;
80131;SDS011;69442;51.442;10.564;2023-08-21T06:11:54;6.68;;;5.93;;
80131;SDS011;69442;51.442;10.564;2023-08-21T06:14:20;7.47;;;5.50;;
80131;SDS011;69442;51.442;10.564;2023-08-21T06:16:53;6.63;;;5.95;;
80131;SDS011;69442;51.442;10.564;2023-08-21T06:19:18;7.43;;;6.50;;
80131;SDS011;69442;51.442;10.564;2023-08-21T06:21:44;7.47;;;6.10;;
80131;SDS011;69442;51.442;10.564;2023-08-21T06:24:09;8.63;;;6.25;;
80131;SDS011;69442;51.442;10.564;2023-08-21T06:26:35;6.25;;;5.63;;
80131;SDS011;69442;51.442;10.564;2023-08-21T06:29:00;7.22;;;6.28;;
80131;SDS011;69442;51.442;10.564;2023-08-21T06:31:25;8.35;;;6.63;;
80131;SDS011;69442;51.442;10.564;2023-08-21T06:33:51;8.20;;;5.97;;
80131;SDS011;69442;51.442;10.564;2023-08-21T06:36:16;8.82;;;6.18;;
80131;SDS011;69442;51.442;10.564;2023-08-21T06:38:41;9.52;;;6.28;;
80131;SDS011;69442;51.442;10.564;2023-08-21T06:41:07;9.05;;;6.28;;
80131;SDS011;69442;51.442;10.564;2023-08-21T06:43:33;10.77;;;7.03;;
80131;SDS011;69442;51.442;10.564;2023-08-21T06:45:58;6.90;;;6.05;;
80131;SDS011;69442;51.442;10.564;2023-08-21T06:48:23;7.53;;;5.75;;
80131;SDS011;69442;51.442;10.564;2023-08-21T06:50:50;7.22;;;5.40;;
80131;SDS011;69442;51.442;10.564;2023-08-21T06:53:15;5.07;;;4.57;;
80131;SDS011;69442;51.442;10.564;2023-08-21T06:55:41;6.63;;;5.38;;
80131;SDS011;69442;51.442;10.564;2023-08-21T06:58:06;6.75;;;5.50;;
80131;SDS011;69442;51.442;10.564;2023-08-21T07:00:32;9.50;;;5.13;;
80131;SDS011;69442;51.442;10.564;2023-08-21T07:02:57;4.40;;;4.00;;
80131;SDS011;69442;51.442;10.564;2023-08-21T07:05:22;6.05;;;4.85;;
80131;SDS011;69442;51.442;10.564;2023-08-21T07:07:48;9.13;;;5.32;;
80131;SDS011;69442;51.442;10.564;2023-08-21T07:10:13;7.47;;;5.95;;
80131;SDS011;69442;51.442;10.564;2023-08-21T07:12:39;8.40;;;5.93;;
80131;SDS011;69442;51.442;10.564;2023-08-21T07:15:04;6.53;;;4.90;;
80131;SDS011;69442;51.442;10.564;2023-08-21T07:17:30;5.93;;;4.82;;
80131;SDS011;69442;51.442;10.564;2023-08-21T07:19:55;5.90;;;4.97;;
80131;SDS011;69442;51.442;10.564;2023-08-21T07:22:21;6.70;;;4.78;;
80131;SDS011;69442;51.442;10.564;2023-08-21T07:24:46;5.00;;;4.30;;
80131;SDS011;69442;51.442;10.564;2023-08-21T07:27:12;8.95;;;5.28;;
80131;SDS011;69442;51.442;10.564;2023-08-21T07:29:37;7.70;;;4.95;;
80131;SDS011;69442;51.442;10.564;2023-08-21T07:32:03;8.25;;;5.10;;
80131;SDS011;69442;51.442;10.564;2023-08-21T07:34:28;5.55;;;4.05;;
80131;SDS011;69442;51.442;10.564;2023-08-21T07:36:54;5.03;;;4.53;;
80131;SDS011;69442;51.442;10.564;2023-08-21T07:39:19;7.30;;;5.03;;
80131;SDS011;69442;51.442;10.564;2023-08-21T07:41:45;6.15;;;5.10;;
80131;SDS011;69442;51.442;10.564;2023-08-21T07:44:10;5.70;;;4.95;;
80131;SDS011;69442;51.442;10.564;2023-08-21T07:46:38;5.13;;;4.28;;
80131;SDS011;69442;51.442;10.564;2023-08-21T07:49:04;5.63;;;4.40;;
80131;SDS011;69442;51.442;10.564;2023-08-21T07:51:29;7.07;;;4.18;;
80131;SDS011;69442;51.442;10.564;2023-08-21T07:53:55;5.93;;;4.30;;
80131;SDS011;69442;51.442;10.564;2023-08-21T07:56:20;5.35;;;3.88;;
80131;SDS011;69442;51.442;10.564;2023-08-21T07:58:45;4.57;;;4.10;;
80131;SDS011;69442;51.442;10.564;2023-08-21T08:01:11;7.68;;;4.35;;
80131;SDS011;69442;51.442;10.564;2023-08-21T08:03:36;6.80;;;4.53;;
80131;SDS011;69442;51.442;10.564;2023-08-21T08:06:02;5.28;;;4.28;;
80131;SDS011;69442;51.442;10.564;2023-08-21T08:08:28;5.80;;;4.00;;
80131;SDS011;69442;51.442;10.564;2023-08-21T08:10:54;5.18;;;4.25;;
80131;SDS011;69442;51.442;10.564;2023-08-21T08:13:19;4.80;;;4.30;;
80131;SDS011;69442;51.442;10.564;2023-08-21T08:15:45;5.82;;;4.22;;
80131;SDS011;69442;51.442;10.564;2023-08-21T08:18:11;5.22;;;4.18;;
80131;SDS011;69442;51.442;10.564;2023-08-21T08:20:37;5.95;;;4.18;;
80131;SDS011;69442;51.442;10.564;2023-08-21T08:23:03;6.95;;;4.60;;
80131;SDS011;69442;51.442;10.564;2023-08-21T08:25:28;5.45;;;3.83;;
80131;SDS011;69442;51.442;10.564;2023-08-21T08:27:54;5.22;;;4.25;;
80131;SDS011;69442;51.442;10.564;2023-08-21T08:30:19;7.05;;;4.32;;
80131;SDS011;69442;51.442;10.564;2023-08-21T08:32:49;6.00;;;4.30;;
80131;SDS011;69442;51.442;10.564;2023-08-21T08:35:14;6.95;;;4.10;;
80131;SDS011;69442;51.442;10.564;2023-08-21T08:37:40;5.35;;;3.70;;
80131;SDS011;69442;51.442;10.564;2023-08-21T08:40:06;6.38;;;4.30;;
80131;SDS011;69442;51.442;10.564;2023-08-21T08:42:32;6.28;;;4.32;;
80131;SDS011;69442;51.442;10.564;2023-08-21T08:45:00;5.05;;;3.20;;
80131;SDS011;69442;51.442;10.564;2023-08-21T08:47:28;4.25;;;3.72;;
80131;SDS011;69442;51.442;10.564;2023-08-21T08:49:56;4.78;;;3.83;;
80131;SDS011;69442;51.442;10.564;2023-08-21T08:52:24;4.68;;;4.28;;
80131;SDS011;69442;51.442;10.564;2023-08-21T08:54:52;7.45;;;4.90;;
80131;SDS011;69442;51.442;10.564;2023-08-21T08:57:20;8.10;;;4.50;;
80131;SDS011;69442;51.442;10.564;2023-08-21T08:59:46;5.22;;;4.28;;
80131;SDS011;69442;51.442;10.564;2023-08-21T09:02:11;6.03;;;4.25;;
80131;SDS011;69442;51.442;10.564;2023-08-21T09:04:36;6.65;;;4.25;;
80131;SDS011;69442;51.442;10.564;2023-08-21T09:07:05;5.07;;;4.32;;
80131;SDS011;69442;51.442;10.564;2023-08-21T09:09:38;4.72;;;4.30;;
80131;SDS011;69442;51.442;10.564;2023-08-21T09:12:11;6.00;;;4.18;;
80131;SDS011;69442;51.442;10.564;2023-08-21T09:14:38;4.50;;;4.10;;
80131;SDS011;69442;51.442;10.564;2023-08-21T09:17:05;4.05;;;3.60;;
80131;SDS011;69442;51.442;10.564;2023-08-21T09:19:31;4.95;;;4.22;;
80131;SDS011;69442;51.442;10.564;2023-08-21T09:21:56;6.25;;;3.30;;
80131;SDS011;69442;51.442;10.564;2023-08-21T09:24:22;3.88;;;3.47;;
80131;SDS011;69442;51.442;10.564;2023-08-21T09:26:48;4.85;;;3.90;;
80131;SDS011;69442;51.442;10.564;2023-08-21T09:29:14;4.93;;;3.90;;
80131;SDS011;69442;51.442;10.564;2023-08-21T09:31:40;6.38;;;4.25;;
80131;SDS011;69442;51.442;10.564;2023-08-21T09:34:05;4.65;;;4.00;;
80131;SDS011;69442;51.442;10.564;2023-08-21T09:36:31;4.10;;;3.80;;
80131;SDS011;69442;51.442;10.564;2023-08-21T09:38:57;4.90;;;3.85;;
80131;SDS011;69442;51.442;10.564;2023-08-21T09:41:23;6.93;;;4.20;;
80131;SDS011;69442;51.442;10.564;2023-08-21T09:43:51;4.70;;;4.22;;
80131;SDS011;69442;51.442;10.564;2023-08-21T09:46:17;5.30;;;3.80;;
80131;SDS011;69442;51.442;10.564;2023-08-21T09:48:49;5.10;;;4.20;;
80131;SDS011;69442;51.442;10.564;2023-08-21T09:51:15;5.43;;;4.55;;
80131;SDS011;69442;51.442;10.564;2023-08-21T09:53:40;4.43;;;4.03;;
80131;SDS011;69442;51.442;10.564;2023-08-21T09:56:06;3.92;;;3.53;;
80131;SDS011;69442;51.442;10.564;2023-08-21T09:58:33;3.85;;;3.40;;
80131;SDS011;69442;51.442;10.564;2023-08-21T10:01:01;4.00;;;3.60;;
80131;SDS011;69442;51.442;10.564;2023-08-21T10:03:33;4.82;;;4.40;;
80131;SDS011;69442;51.442;10.564;2023-08-21T10:06:00;4.22;;;3.47;;
80131;SDS011;69442;51.442;10.564;2023-08-21T10:08:26;5.35;;;3.75;;
80131;SDS011;69442;51.442;10.564;2023-08-21T10:10:52;4.25;;;3.85;;
80131;SDS011;69442;51.442;10.564;2023-08-21T10:13:19;4.68;;;3.97;;
80131;SDS011;69442;51.442;10.564;2023-08-21T10:15:45;4.72;;;4.35;;
80131;SDS011;69442;51.442;10.564;2023-08-21T10:18:17;4.70;;;4.30;;
80131;SDS011;69442;51.442;10.564;2023-08-21T10:20:43;4.03;;;3.65;;
80131;SDS011;69442;51.442;10.564;2023-08-21T10:23:09;5.88;;;4.00;;
80131;SDS011;69442;51.442;10.564;2023-08-21T10:25:35;4.03;;;3.63;;
80131;SDS011;69442;51.442;10.564;2023-08-21T10:28:06;4.45;;;4.05;;
80131;SDS011;69442;51.442;10.564;2023-08-21T10:30:32;4.35;;;3.95;;
80131;SDS011;69442;51.442;10.564;2023-08-21T10:32:58;7.57;;;4.57;;
80131;SDS011;69442;51.442;10.564;2023-08-21T10:35:25;4.10;;;3.80;;
80131;SDS011;69442;51.442;10.564;2023-08-21T10:38:13;5.57;;;3.60;;
80131;SDS011;69442;51.442;10.564;2023-08-21T10:43:37;5.00;;;4.50;;
80131;SDS011;69442;51.442;10.564;2023-08-21T10:46:10;7.47;;;4.72;;
80131;SDS011;69442;51.442;10.564;2023-08-21T10:48:39;4.40;;;4.00;;
80131;SDS011;69442;51.442;10.564;2023-08-21T10:51:05;4.33;;;4.03;;
80131;SDS011;69442;51.442;10.564;2023-08-21T10:53:32;5.70;;;4.13;;
80131;SDS011;69442;51.442;10.564;2023-08-21T10:56:04;3.92;;;3.53;;
80131;SDS011;69442;51.442;10.564;2023-08-21T10:58:42;5.80;;;4.07;;
80131;SDS011;69442;51.442;10.564;2023-08-21T11:01:12;3.22;;;2.92;;
80131;SDS011;69442;51.442;10.564;2023-08-21T11:03:38;4.30;;;3.90;;
80131;SDS011;69442;51.442;10.564;2023-08-21T11:06:05;4.00;;;3.55;;
80131;SDS011;69442;51.442;10.564;2023-08-21T11:08:32;4.65;;;4.20;;
80131;SDS011;69442;51.442;10.564;2023-08-21T11:10:59;4.60;;;4.20;;
80131;SDS011;69442;51.442;10.564;2023-08-21T11:13:25;5.32;;;3.95;;
80131;SDS011;69442;51.442;10.564;2023-08-21T11:16:06;3.72;;;3.40;;
80131;SDS011;69442;51.442;10.564;2023-08-21T11:21:07;3.70;;;3.40;;
80131;SDS011;69442;51.442;10.564;2023-08-21T11:23:34;3.08;;;2.83;;
80131;SDS011;69442;51.442;10.564;2023-08-21T11:26:01;4.60;;;4.20;;
80131;SDS011;69442;51.442;10.564;2023-08-21T11:28:28;4.65;;;3.97;;
80131;SDS011;69442;51.442;10.564;2023-08-21T11:30:55;4.35;;;3.95;;
80131;SDS011;69442;51.442;10.564;2023-08-21T11:33:21;2.90;;;2.70;;
80131;SDS011;69442;51.442;10.564;2023-08-21T11:35:47;3.08;;;2.88;;
80131;SDS011;69442;51.442;10.564;2023-08-21T11:38:19;3.80;;;3.50;;
80131;SDS011;69442;51.442;10.564;2023-08-21T11:40:52;4.65;;;4.05;;
80131;SDS011;69442;51.442;10.564;2023-08-21T11:43:19;3.08;;;2.78;;
80131;SDS011;69442;51.442;10.564;2023-08-21T11:45:45;3.83;;;3.50;;
80131;SDS011;69442;51.442;10.564;2023-08-21T11:48:11;4.07;;;3.67;;
80131;SDS011;69442;51.442;10.564;2023-08-21T11:50:36;5.05;;;3.95;;
80131;SDS011;69442;51.442;10.564;2023-08-21T11:53:02;5.28;;;4.28;;
80131;SDS011;69442;51.442;10.564;2023-08-21T11:55:28;4.18;;;3.58;;
80131;SDS011;69442;51.442;10.564;2023-08-21T11:57:56;3.95;;;3.65;;
80131;SDS011;69442;51.442;10.564;2023-08-21T12:00:28;4.80;;;3.50;;
80131;SDS011;69442;51.442;10.564;2023-08-21T12:02:55;3.85;;;3.55;;
80131;SDS011;69442;51.442;10.564;2023-08-21T12:05:21;5.55;;;3.78;;
80131;SDS011;69442;51.442;10.564;2023-08-21T12:07:47;4.10;;;3.80;;
80131;SDS011;69442;51.442;10.564;2023-08-21T12:10:13;4.07;;;3.50;;
80131;SDS011;69442;51.442;10.564;2023-08-21T12:12:38;5.35;;;3.97;;
80131;SDS011;69442;51.442;10.564;2023-08-21T12:15:04;6.03;;;3.75;;
80131;SDS011;69442;51.442;10.564;2023-08-21T12:17:29;3.75;;;3.38;;
80131;SDS011;69442;51.442;10.564;2023-08-21T12:19:56;3.58;;;3.28;;
80131;SDS011;69442;51.442;10.564;2023-08-21T12:22:21;3.38;;;3.05;;
80131;SDS011;69442;51.442;10.564;2023-08-21T12:24:46;4.60;;;4.00;;
80131;SDS011;69442;51.442;10.564;2023-08-21T12:27:12;3.72;;;3.30;;
80131;SDS011;69442;51.442;10.564;2023-08-21T12:29:37;3.67;;;3.33;;
80131;SDS011;69442;51.442;10.564;2023-08-21T12:32:03;3.33;;;3.13;;
80131;SDS011;69442;51.442;10.564;2023-08-21T12:34:28;4.53;;;3.10;;
80131;SDS011;69442;51.442;10.564;2023-08-21T12:36:54;4.07;;;3.70;;
80131;SDS011;69442;51.442;10.564;2023-08-21T12:39:20;3.60;;;3.30;;
80131;SDS011;69442;51.442;10.564;2023-08-21T12:41:47;3.67;;;3.28;;
80131;SDS011;69442;51.442;10.564;2023-08-21T12:44:13;3.88;;;3.47;;
80131;SDS011;69442;51.442;10.564;2023-08-21T12:46:39;4.55;;;3.20;;
80131;SDS011;69442;51.442;10.564;2023-08-21T12:49:04;3.08;;;2.88;;
80131;SDS011;69442;51.442;10.564;2023-08-21T12:51:30;3.78;;;3.47;;
80131;SDS011;69442;51.442;10.564;2023-08-21T12:53:55;3.95;;;3.60;;
80131;SDS011;69442;51.442;10.564;2023-08-21T12:56:21;4.90;;;3.53;;
80131;SDS011;69442;51.442;10.564;2023-08-21T12:58:46;5.57;;;3.97;;
80131;SDS011;69442;51.442;10.564;2023-08-21T13:01:12;3.50;;;3.20;;
80131;SDS011;69442;51.442;10.564;2023-08-21T13:03:37;4.07;;;3.67;;
80131;SDS011;69442;51.442;10.564;2023-08-21T13:06:03;3.97;;;3.50;;
80131;SDS011;69442;51.442;10.564;2023-08-21T13:08:29;6.22;;;4.15;;
80131;SDS011;69442;51.442;10.564;2023-08-21T13:10:54;4.40;;;3.78;;
80131;SDS011;69442;51.442;10.564;2023-08-21T13:13:20;3.75;;;3.30;;
80131;SDS011;69442;51.442;10.564;2023-08-21T13:15:45;5.72;;;3.72;;
80131;SDS011;69442;51.442;10.564;2023-08-21T13:18:11;3.63;;;3.25;;
80131;SDS011;69442;51.442;10.564;2023-08-21T13:20:38;5.97;;;3.10;;
80131;SDS011;69442;51.442;10.564;2023-08-21T13:23:03;4.18;;;3.80;;
80131;SDS011;69442;51.442;10.564;2023-08-21T13:25:29;3.85;;;3.20;;
80131;SDS011;69442;51.442;10.564;2023-08-21T13:27:54;4.05;;;3.55;;
80131;SDS011;69442;51.442;10.564;2023-08-21T13:30:20;5.47;;;3.25;;
80131;SDS011;69442;51.442;10.564;2023-08-21T13:32:47;4.13;;;3.35;;
80131;SDS011;69442;51.442;10.564;2023-08-21T13:35:12;3.72;;;3.42;;
80131;SDS011;69442;51.442;10.564;2023-08-21T13:37:38;3.80;;;3.13;;
80131;SDS011;69442;51.442;10.564;2023-08-21T13:40:04;3.58;;;3.28;;
80131;SDS011;69442;51.442;10.564;2023-08-21T13:42:37;4.03;;;3.03;;
80131;SDS011;69442;51.442;10.564;2023-08-21T13:45:06;3.40;;;3.00;;
80131;SDS011;69442;51.442;10.564;2023-08-21T13:47:33;3.78;;;3.47;;
80131;SDS011;69442;51.442;10.564;2023-08-21T13:49:59;4.55;;;3.33;;
80131;SDS011;69442;51.442;10.564;2023-08-21T13:52:24;3.53;;;3.22;;
80131;SDS011;69442;51.442;10.564;2023-08-21T13:54:49;3.60;;;3.30;;
80131;SDS011;69442;51.442;10.564;2023-08-21T13:57:15;3.03;;;2.67;;
80131;SDS011;69442;51.442;10.564;2023-08-21T13:59:40;4.22;;;3.25;;
80131;SDS011;69442;51.442;10.564;2023-08-21T14:02:06;4.05;;;3.40;;
80131;SDS011;69442;51.442;10.564;2023-08-21T14:04:32;3.80;;;3.20;;
80131;SDS011;69442;51.442;10.564;2023-08-21T14:06:57;5.28;;;3.17;;
80131;SDS011;69442;51.442;10.564;2023-08-21T14:09:23;3.03;;;2.72;;
80131;SDS011;69442;51.442;10.564;2023-08-21T14:11:48;4.03;;;3.30;;
80131;SDS011;69442;51.442;10.564;2023-08-21T14:14:13;3.38;;;3.00;;
80131;SDS011;69442;51.442;10.564;2023-08-21T14:16:39;3.50;;;3.15;;
80131;SDS011;69442;51.442;10.564;2023-08-21T14:19:04;3.53;;;2.92;;
80131;SDS011;69442;51.442;10.564;2023-08-21T14:21:30;3.78;;;2.80;;
80131;SDS011;69442;51.442;10.564;2023-08-21T14:23:55;3.47;;;2.88;;
80131;SDS011;69442;51.442;10.564;2023-08-21T14:26:20;3.83;;;2.97;;
80131;SDS011;69442;51.442;10.564;2023-08-21T14:28:47;3.60;;;3.22;;
80131;SDS011;69442;51.442;10.564;2023-08-21T14:31:15;3.38;;;2.97;;
80131;SDS011;69442;51.442;10.564;2023-08-21T14:33:41;3.10;;;2.70;;
80131;SDS011;69442;51.442;10.564;2023-08-21T14:36:07;3.08;;;2.80;;
80131;SDS011;69442;51.442;10.564;2023-08-21T14:38:32;2.90;;;2.67;;
80131;SDS011;69442;51.442;10.564;2023-08-21T14:40:57;2.75;;;2.55;;